sensor_id;sensor_type;location;lat;lon;timestamp;P1;durP1;ratioP1;P2;durP2;ratioP2
22441;SDS011;11388;54.456;9.752;2023-09-19T00:04:58;4.43;;;1.13;;
22441;SDS011;11388;54.456;9.752;2023-09-19T00:07:28;4.32;;;1.23;;
22441;SDS011;11388;54.456;9.752;2023-09-19T00:09:57;5.97;;;1.30;;
22441;SDS011;11388;54.456;9.752;2023-09-19T00:12:23;4.75;;;1.23;;
22441;SDS011;11388;54.456;9.752;2023-09-19T00:14:48;4.18;;;1.20;;
22441;SDS011;11388;54.456;9.752;2023-09-19T00:17:17;3.15;;;1.17;;
22441;SDS011;11388;54.456;9.752;2023-09-19T00:23:11;4.82;;;1.50;;
22441;SDS011;11388;54.456;9.752;2023-09-19T00:25:36;4.50;;;1.45;;
22441;SDS011;11388;54.456;9.752;2023-09-19T00:28:03;3.40;;;1.30;;
22441;SDS011;11388;54.456;9.752;2023-09-19T00:30:38;4.20;;;1.50;;
22441;SDS011;11388;54.456;9.752;2023-09-19T00:33:26;7.38;;;1.50;;
22441;SDS011;11388;54.456;9.752;2023-09-19T00:35:54;6.15;;;1.70;;
22441;SDS011;11388;54.456;9.752;2023-09-19T00:38:22;6.55;;;1.80;;
22441;SDS011;11388;54.456;9.752;2023-09-19T00:40:52;10.30;;;1.70;;
22441;SDS011;11388;54.456;9.752;2023-09-19T00:43:18;7.55;;;1.67;;
22441;SDS011;11388;54.456;9.752;2023-09-19T00:45:49;6.45;;;1.50;;
22441;SDS011;11388;54.456;9.752;2023-09-19T00:48:17;6.22;;;1.88;;
22441;SDS011;11388;54.456;9.752;2023-09-19T00:50:45;6.55;;;1.58;;
22441;SDS011;11388;54.456;9.752;2023-09-19T00:53:14;6.13;;;1.50;;
22441;SDS011;11388;54.456;9.752;2023-09-19T00:55:43;7.13;;;1.90;;
22441;SDS011;11388;54.456;9.752;2023-09-19T00:58:10;6.68;;;1.60;;
22441;SDS011;11388;54.456;9.752;2023-09-19T01:00:37;6.95;;;1.60;;
22441;SDS011;11388;54.456;9.752;2023-09-19T01:03:03;7.63;;;1.52;;
22441;SDS011;11388;54.456;9.752;2023-09-19T01:05:31;6.13;;;1.50;;
22441;SDS011;11388;54.456;9.752;2023-09-19T01:08:01;8.77;;;2.15;;
22441;SDS011;11388;54.456;9.752;2023-09-19T01:10:26;7.68;;;1.80;;
22441;SDS011;11388;54.456;9.752;2023-09-19T01:29:16;8.00;;;2.00;;
22441;SDS011;11388;54.456;9.752;2023-09-19T01:32:04;10.90;;;2.88;;
22441;SDS011;11388;54.456;9.752;2023-09-19T01:35:13;9.70;;;2.17;;
22441;SDS011;11388;54.456;9.752;2023-09-19T01:37:29;10.77;;;2.50;;
22441;SDS011;11388;54.456;9.752;2023-09-19T01:40:06;7.10;;;1.83;;
22441;SDS011;11388;54.456;9.752;2023-09-19T01:51:51;13.23;;;2.38;;
22441;SDS011;11388;54.456;9.752;2023-09-19T01:54:33;9.70;;;2.10;;
22441;SDS011;11388;54.456;9.752;2023-09-19T01:57:05;10.25;;;2.17;;
22441;SDS011;11388;54.456;9.752;2023-09-19T01:59:36;8.07;;;2.10;;
22441;SDS011;11388;54.456;9.752;2023-09-19T02:02:08;10.43;;;2.15;;
22441;SDS011;11388;54.456;9.752;2023-09-19T02:04:35;11.20;;;2.28;;
22441;SDS011;11388;54.456;9.752;2023-09-19T02:07:01;9.23;;;2.10;;
22441;SDS011;11388;54.456;9.752;2023-09-19T02:09:28;9.30;;;2.10;;
22441;SDS011;11388;54.456;9.752;2023-09-19T02:11:53;9.80;;;2.30;;
22441;SDS011;11388;54.456;9.752;2023-09-19T02:14:21;11.45;;;2.15;;
22441;SDS011;11388;54.456;9.752;2023-09-19T02:16:47;8.85;;;2.00;;
22441;SDS011;11388;54.456;9.752;2023-09-19T02:19:14;9.35;;;2.53;;
22441;SDS011;11388;54.456;9.752;2023-09-19T02:21:40;12.23;;;2.38;;
22441;SDS011;11388;54.456;9.752;2023-09-19T02:24:17;9.68;;;2.75;;
22441;SDS011;11388;54.456;9.752;2023-09-19T02:26:44;9.32;;;2.05;;
22441;SDS011;11388;54.456;9.752;2023-09-19T02:29:18;8.23;;;2.00;;
22441;SDS011;11388;54.456;9.752;2023-09-19T02:31:44;9.55;;;2.40;;
22441;SDS011;11388;54.456;9.752;2023-09-19T02:34:11;11.43;;;2.22;;
22441;SDS011;11388;54.456;9.752;2023-09-19T02:36:37;9.15;;;2.03;;
22441;SDS011;11388;54.456;9.752;2023-09-19T02:39:05;11.48;;;2.33;;
22441;SDS011;11388;54.456;9.752;2023-09-19T02:41:36;9.10;;;2.30;;
22441;SDS011;11388;54.456;9.752;2023-09-19T02:44:02;9.52;;;2.05;;
22441;SDS011;11388;54.456;9.752;2023-09-19T02:46:28;7.13;;;2.25;;
22441;SDS011;11388;54.456;9.752;2023-09-19T02:48:56;6.78;;;2.00;;
22441;SDS011;11388;54.456;9.752;2023-09-19T02:51:22;10.63;;;2.13;;
22441;SDS011;11388;54.456;9.752;2023-09-19T02:53:48;6.18;;;1.80;;
22441;SDS011;11388;54.456;9.752;2023-09-19T02:56:14;8.98;;;2.08;;
22441;SDS011;11388;54.456;9.752;2023-09-19T02:58:40;8.10;;;1.73;;
22441;SDS011;11388;54.456;9.752;2023-09-19T03:01:10;5.70;;;1.50;;
22441;SDS011;11388;54.456;9.752;2023-09-19T03:03:37;7.15;;;1.50;;
22441;SDS011;11388;54.456;9.752;2023-09-19T03:06:05;3.92;;;1.30;;
22441;SDS011;11388;54.456;9.752;2023-09-19T03:08:34;18.83;;;2.50;;
22441;SDS011;11388;54.456;9.752;2023-09-19T03:11:03;5.40;;;1.60;;
22441;SDS011;11388;54.456;9.752;2023-09-19T03:13:31;4.57;;;1.70;;
22441;SDS011;11388;54.456;9.752;2023-09-19T03:16:01;32.58;;;2.70;;
22441;SDS011;11388;54.456;9.752;2023-09-19T03:18:31;8.25;;;2.30;;
22441;SDS011;11388;54.456;9.752;2023-09-19T03:21:00;7.80;;;2.03;;
22441;SDS011;11388;54.456;9.752;2023-09-19T03:23:26;8.80;;;2.10;;
22441;SDS011;11388;54.456;9.752;2023-09-19T03:25:53;7.93;;;1.90;;
22441;SDS011;11388;54.456;9.752;2023-09-19T03:28:20;11.10;;;2.33;;
22441;SDS011;11388;54.456;9.752;2023-09-19T03:30:56;8.57;;;2.38;;
22441;SDS011;11388;54.456;9.752;2023-09-19T03:33:32;8.15;;;2.25;;
22441;SDS011;11388;54.456;9.752;2023-09-19T03:35:59;11.00;;;2.38;;
22441;SDS011;11388;54.456;9.752;2023-09-19T03:38:26;8.65;;;2.03;;
22441;SDS011;11388;54.456;9.752;2023-09-19T03:40:54;11.65;;;2.60;;
22441;SDS011;11388;54.456;9.752;2023-09-19T03:43:22;11.10;;;2.10;;
22441;SDS011;11388;54.456;9.752;2023-09-19T03:45:51;12.10;;;2.65;;
22441;SDS011;11388;54.456;9.752;2023-09-19T03:48:19;17.20;;;3.03;;
22441;SDS011;11388;54.456;9.752;2023-09-19T03:50:49;11.63;;;2.55;;
22441;SDS011;11388;54.456;9.752;2023-09-19T03:53:18;12.43;;;2.80;;
22441;SDS011;11388;54.456;9.752;2023-09-19T03:55:47;13.10;;;2.85;;
22441;SDS011;11388;54.456;9.752;2023-09-19T03:58:13;11.27;;;2.67;;
22441;SDS011;11388;54.456;9.752;2023-09-19T04:00:49;12.80;;;2.70;;
22441;SDS011;11388;54.456;9.752;2023-09-19T04:03:26;15.63;;;2.88;;
22441;SDS011;11388;54.456;9.752;2023-09-19T04:06:00;12.02;;;2.75;;
22441;SDS011;11388;54.456;9.752;2023-09-19T04:08:37;16.33;;;3.10;;
22441;SDS011;11388;54.456;9.752;2023-09-19T04:11:30;14.00;;;2.95;;
22441;SDS011;11388;54.456;9.752;2023-09-19T04:14:06;17.05;;;2.90;;
22441;SDS011;11388;54.456;9.752;2023-09-19T04:16:51;16.27;;;3.08;;
22441;SDS011;11388;54.456;9.752;2023-09-19T04:19:22;12.45;;;2.47;;
22441;SDS011;11388;54.456;9.752;2023-09-19T04:22:03;10.80;;;2.17;;
22441;SDS011;11388;54.456;9.752;2023-09-19T04:24:47;12.02;;;2.35;;
22441;SDS011;11388;54.456;9.752;2023-09-19T04:27:25;10.55;;;2.47;;
22441;SDS011;11388;54.456;9.752;2023-09-19T04:29:56;11.27;;;2.50;;
22441;SDS011;11388;54.456;9.752;2023-09-19T04:32:39;15.40;;;2.50;;
22441;SDS011;11388;54.456;9.752;2023-09-19T04:35:16;44.05;;;4.05;;
22441;SDS011;11388;54.456;9.752;2023-09-19T04:37:54;14.45;;;3.08;;
22441;SDS011;11388;54.456;9.752;2023-09-19T04:40:25;16.45;;;3.17;;
22441;SDS011;11388;54.456;9.752;2023-09-19T04:42:57;14.93;;;3.38;;
22441;SDS011;11388;54.456;9.752;2023-09-19T04:45:26;13.73;;;2.85;;
22441;SDS011;11388;54.456;9.752;2023-09-19T04:47:55;12.05;;;2.67;;
22441;SDS011;11388;54.456;9.752;2023-09-19T04:50:27;15.02;;;2.90;;
22441;SDS011;11388;54.456;9.752;2023-09-19T04:53:00;15.90;;;2.50;;
22441;SDS011;11388;54.456;9.752;2023-09-19T04:58:26;10.38;;;1.98;;
22441;SDS011;11388;54.456;9.752;2023-09-19T05:00:58;22.98;;;2.72;;
22441;SDS011;11388;54.456;9.752;2023-09-19T05:03:48;11.75;;;2.08;;
22441;SDS011;11388;54.456;9.752;2023-09-19T05:06:33;13.20;;;2.30;;
22441;SDS011;11388;54.456;9.752;2023-09-19T05:09:26;10.77;;;2.10;;
22441;SDS011;11388;54.456;9.752;2023-09-19T05:12:32;8.57;;;1.92;;
22441;SDS011;11388;54.456;9.752;2023-09-19T05:15:13;7.57;;;2.00;;
22441;SDS011;11388;54.456;9.752;2023-09-19T05:17:50;10.82;;;2.10;;
22441;SDS011;11388;54.456;9.752;2023-09-19T05:20:23;17.55;;;3.30;;
22441;SDS011;11388;54.456;9.752;2023-09-19T05:23:12;12.95;;;1.88;;
22441;SDS011;11388;54.456;9.752;2023-09-19T05:25:39;7.03;;;1.55;;
22441;SDS011;11388;54.456;9.752;2023-09-19T05:28:05;9.82;;;1.98;;
22441;SDS011;11388;54.456;9.752;2023-09-19T05:30:37;11.10;;;1.88;;
22441;SDS011;11388;54.456;9.752;2023-09-19T05:33:08;7.65;;;1.70;;
22441;SDS011;11388;54.456;9.752;2023-09-19T05:35:34;7.30;;;1.38;;
22441;SDS011;11388;54.456;9.752;2023-09-19T05:38:22;9.07;;;1.40;;
22441;SDS011;11388;54.456;9.752;2023-09-19T10:28:30;6.95;;;1.60;;
22441;SDS011;11388;54.456;9.752;2023-09-19T10:31:19;9.82;;;2.20;;
22441;SDS011;11388;54.456;9.752;2023-09-19T10:34:39;6.30;;;1.58;;
22441;SDS011;11388;54.456;9.752;2023-09-19T10:37:51;6.90;;;1.73;;
22441;SDS011;11388;54.456;9.752;2023-09-19T10:40:38;8.93;;;2.03;;
22441;SDS011;11388;54.456;9.752;2023-09-19T10:43:19;7.05;;;1.80;;
22441;SDS011;11388;54.456;9.752;2023-09-19T10:52:38;9.38;;;1.90;;
22441;SDS011;11388;54.456;9.752;2023-09-19T10:55:25;7.70;;;1.83;;
22441;SDS011;11388;54.456;9.752;2023-09-19T11:01:07;10.85;;;1.98;;
22441;SDS011;11388;54.456;9.752;2023-09-19T11:06:58;5.85;;;1.65;;
22441;SDS011;11388;54.456;9.752;2023-09-19T11:09:50;9.20;;;1.70;;
22441;SDS011;11388;54.456;9.752;2023-09-19T11:18:58;9.30;;;2.25;;
22441;SDS011;11388;54.456;9.752;2023-09-19T11:27:33;7.47;;;1.77;;
22441;SDS011;11388;54.456;9.752;2023-09-19T11:33:34;7.45;;;1.65;;
22441;SDS011;11388;54.456;9.752;2023-09-19T11:36:16;7.22;;;1.52;;
22441;SDS011;11388;54.456;9.752;2023-09-19T11:39:26;9.27;;;2.40;;
22441;SDS011;11388;54.456;9.752;2023-09-19T11:48:29;8.48;;;1.80;;
22441;SDS011;11388;54.456;9.752;2023-09-19T11:51:03;7.47;;;1.70;;
22441;SDS011;11388;54.456;9.752;2023-09-19T11:54:10;7.25;;;1.80;;
22441;SDS011;11388;54.456;9.752;2023-09-19T11:56:48;8.85;;;1.77;;
22441;SDS011;11388;54.456;9.752;2023-09-19T12:02:55;8.65;;;1.75;;
22441;SDS011;11388;54.456;9.752;2023-09-19T12:05:31;8.75;;;2.10;;
22441;SDS011;11388;54.456;9.752;2023-09-19T12:08:14;9.13;;;2.00;;
22441;SDS011;11388;54.456;9.752;2023-09-19T12:10:50;6.35;;;1.77;;
22441;SDS011;11388;54.456;9.752;2023-09-19T12:13:32;8.65;;;2.00;;
22441;SDS011;11388;54.456;9.752;2023-09-19T12:16:18;8.20;;;2.15;;
22441;SDS011;11388;54.456;9.752;2023-09-19T12:29:07;8.93;;;2.10;;
22441;SDS011;11388;54.456;9.752;2023-09-19T12:32:00;5.82;;;1.55;;
22441;SDS011;11388;54.456;9.752;2023-09-19T12:34:55;7.20;;;2.03;;
22441;SDS011;11388;54.456;9.752;2023-09-19T12:37:35;7.50;;;1.90;;
22441;SDS011;11388;54.456;9.752;2023-09-19T12:40:27;10.20;;;2.10;;
22441;SDS011;11388;54.456;9.752;2023-09-19T12:43:21;6.15;;;1.80;;
22441;SDS011;11388;54.456;9.752;2023-09-19T12:46:22;8.90;;;1.90;;
22441;SDS011;11388;54.456;9.752;2023-09-19T16:51:44;7.30;;;1.70;;
22441;SDS011;11388;54.456;9.752;2023-09-19T16:54:19;8.18;;;2.05;;
22441;SDS011;11388;54.456;9.752;2023-09-19T16:56:55;5.72;;;1.45;;
22441;SDS011;11388;54.456;9.752;2023-09-19T16:59:52;12.38;;;1.90;;
22441;SDS011;11388;54.456;9.752;2023-09-19T17:02:40;7.40;;;1.63;;
22441;SDS011;11388;54.456;9.752;2023-09-19T17:05:06;8.55;;;1.48;;
22441;SDS011;11388;54.456;9.752;2023-09-19T17:07:48;7.95;;;1.80;;
22441;SDS011;11388;54.456;9.752;2023-09-19T17:10:17;6.78;;;1.52;;
22441;SDS011;11388;54.456;9.752;2023-09-19T17:13:07;7.50;;;1.50;;
22441;SDS011;11388;54.456;9.752;2023-09-19T17:15:47;8.10;;;1.77;;
22441;SDS011;11388;54.456;9.752;2023-09-19T17:18:49;7.75;;;1.50;;
22441;SDS011;11388;54.456;9.752;2023-09-19T18:46:11;4.82;;;1.13;;
22441;SDS011;11388;54.456;9.752;2023-09-19T19:33:18;3.22;;;1.02;;
22441;SDS011;11388;54.456;9.752;2023-09-19T19:55:59;3.70;;;1.10;;
22441;SDS011;11388;54.456;9.752;2023-09-19T20:02:11;4.57;;;1.15;;
22441;SDS011;11388;54.456;9.752;2023-09-19T20:04:47;5.70;;;1.10;;
22441;SDS011;11388;54.456;9.752;2023-09-19T20:10:28;3.28;;;1.13;;
22441;SDS011;11388;54.456;9.752;2023-09-19T20:16:42;5.05;;;1.00;;
22441;SDS011;11388;54.456;9.752;2023-09-19T20:26:04;2.80;;;1.17;;
22441;SDS011;11388;54.456;9.752;2023-09-19T20:36:13;3.25;;;1.20;;
22441;SDS011;11388;54.456;9.752;2023-09-19T20:39:00;4.40;;;1.30;;
22441;SDS011;11388;54.456;9.752;2023-09-19T20:42:16;5.65;;;1.33;;
22441;SDS011;11388;54.456;9.752;2023-09-19T20:45:28;3.58;;;1.13;;
22441;SDS011;11388;54.456;9.752;2023-09-19T20:55:08;3.92;;;1.30;;
22441;SDS011;11388;54.456;9.752;2023-09-19T21:23:43;4.80;;;1.20;;
22441;SDS011;11388;54.456;9.752;2023-09-19T21:29:31;3.63;;;1.00;;
22441;SDS011;11388;54.456;9.752;2023-09-19T21:32:19;5.28;;;1.08;;
22441;SDS011;11388;54.456;9.752;2023-09-19T21:38:28;2.78;;;1.10;;
22441;SDS011;11388;54.456;9.752;2023-09-19T21:45:18;3.75;;;1.00;;
22441;SDS011;11388;54.456;9.752;2023-09-19T21:57:28;3.42;;;0.98;;
22441;SDS011;11388;54.456;9.752;2023-09-19T22:13:00;2.08;;;0.90;;
22441;SDS011;11388;54.456;9.752;2023-09-19T22:15:57;3.38;;;1.00;;
22441;SDS011;11388;54.456;9.752;2023-09-19T22:32:50;3.25;;;1.35;;
22441;SDS011;11388;54.456;9.752;2023-09-19T22:49:23;4.05;;;1.30;;
22441;SDS011;11388;54.456;9.752;2023-09-19T23:03:25;4.38;;;1.30;;
22441;SDS011;11388;54.456;9.752;2023-09-19T23:16:56;2.35;;;1.20;;
22441;SDS011;11388;54.456;9.752;2023-09-19T23:19:54;4.45;;;1.33;;
22441;SDS011;11388;54.456;9.752;2023-09-19T23:26:22;4.53;;;1.30;;
22441;SDS011;11388;54.456;9.752;2023-09-19T23:29:27;3.67;;;1.33;;
22441;SDS011;11388;54.456;9.752;2023-09-19T23:48:43;3.80;;;1.60;;
22441;SDS011;11388;54.456;9.752;2023-09-19T23:51:42;4.05;;;1.50;;
22441;SDS011;11388;54.456;9.752;2023-09-19T23:55:19;5.55;;;1.60;;
